sensor_id;sensor_type;location;lat;lon;timestamp;temperature;humidity
56538;DHT22;42435;53.292;6.000;2023-07-20T00:01:11;16.40;75.70
56538;DHT22;42435;53.292;6.000;2023-07-20T00:03:36;16.30;75.70
56538;DHT22;42435;53.292;6.000;2023-07-20T00:06:02;16.30;75.60
56538;DHT22;42435;53.292;6.000;2023-07-20T00:08:30;16.20;75.60
56538;DHT22;42435;53.292;6.000;2023-07-20T00:10:56;16.10;75.50
56538;DHT22;42435;53.292;6.000;2023-07-20T00:13:22;16.00;75.50
56538;DHT22;42435;53.292;6.000;2023-07-20T00:15:48;16.00;75.60
56538;DHT22;42435;53.292;6.000;2023-07-20T00:18:13;15.90;75.60
56538;DHT22;42435;53.292;6.000;2023-07-20T00:20:40;15.80;75.60
56538;DHT22;42435;53.292;6.000;2023-07-20T00:23:06;15.80;75.50
56538;DHT22;42435;53.292;6.000;2023-07-20T00:25:32;15.70;75.60
56538;DHT22;42435;53.292;6.000;2023-07-20T00:27:58;15.60;75.80
56538;DHT22;42435;53.292;6.000;2023-07-20T00:30:24;15.50;75.80
56538;DHT22;42435;53.292;6.000;2023-07-20T00:32:50;15.40;75.70
56538;DHT22;42435;53.292;6.000;2023-07-20T00:35:15;15.30;75.60
56538;DHT22;42435;53.292;6.000;2023-07-20T00:37:41;15.30;75.90
56538;DHT22;42435;53.292;6.000;2023-07-20T00:40:07;15.20;76.30
56538;DHT22;42435;53.292;6.000;2023-07-20T00:42:33;15.10;76.40
56538;DHT22;42435;53.292;6.000;2023-07-20T00:44:59;15.10;76.50
56538;DHT22;42435;53.292;6.000;2023-07-20T00:47:25;15.00;76.50
56538;DHT22;42435;53.292;6.000;2023-07-20T00:49:51;14.90;76.50
56538;DHT22;42435;53.292;6.000;2023-07-20T00:52:19;14.90;76.30
56538;DHT22;42435;53.292;6.000;2023-07-20T00:54:46;14.80;76.20
56538;DHT22;42435;53.292;6.000;2023-07-20T00:57:14;14.80;76.30
56538;DHT22;42435;53.292;6.000;2023-07-20T00:59:40;14.70;76.60
56538;DHT22;42435;53.292;6.000;2023-07-20T01:02:05;14.60;76.90
56538;DHT22;42435;53.292;6.000;2023-07-20T01:04:31;14.60;77.00
56538;DHT22;42435;53.292;6.000;2023-07-20T01:07:09;14.60;77.00
56538;DHT22;42435;53.292;6.000;2023-07-20T01:12:22;14.50;77.50
56538;DHT22;42435;53.292;6.000;2023-07-20T01:14:51;14.50;77.60
56538;DHT22;42435;53.292;6.000;2023-07-20T01:17:17;14.40;77.60
56538;DHT22;42435;53.292;6.000;2023-07-20T01:19:43;14.40;77.80
56538;DHT22;42435;53.292;6.000;2023-07-20T01:30:33;14.40;77.90
56538;DHT22;42435;53.292;6.000;2023-07-20T01:33:00;14.30;77.70
56538;DHT22;42435;53.292;6.000;2023-07-20T01:35:29;14.20;77.50
56538;DHT22;42435;53.292;6.000;2023-07-20T01:37:55;14.20;77.50
56538;DHT22;42435;53.292;6.000;2023-07-20T01:40:24;14.10;77.60
56538;DHT22;42435;53.292;6.000;2023-07-20T01:42:51;14.10;77.50
56538;DHT22;42435;53.292;6.000;2023-07-20T01:45:17;14.00;77.60
56538;DHT22;42435;53.292;6.000;2023-07-20T01:47:43;14.00;77.70
56538;DHT22;42435;53.292;6.000;2023-07-20T01:50:09;14.00;77.60
56538;DHT22;42435;53.292;6.000;2023-07-20T01:52:34;13.90;77.50
56538;DHT22;42435;53.292;6.000;2023-07-20T01:55:01;13.90;77.50
56538;DHT22;42435;53.292;6.000;2023-07-20T01:57:27;13.90;77.40
56538;DHT22;42435;53.292;6.000;2023-07-20T01:59:53;13.90;77.60
56538;DHT22;42435;53.292;6.000;2023-07-20T02:02:18;13.80;77.70
56538;DHT22;42435;53.292;6.000;2023-07-20T02:04:45;13.80;77.60
56538;DHT22;42435;53.292;6.000;2023-07-20T02:07:11;13.80;77.60
56538;DHT22;42435;53.292;6.000;2023-07-20T02:09:37;13.70;77.60
56538;DHT22;42435;53.292;6.000;2023-07-20T02:12:02;13.70;77.80
56538;DHT22;42435;53.292;6.000;2023-07-20T02:14:28;13.70;77.90
56538;DHT22;42435;53.292;6.000;2023-07-20T02:16:53;13.60;77.80
56538;DHT22;42435;53.292;6.000;2023-07-20T02:19:24;13.60;77.60
56538;DHT22;42435;53.292;6.000;2023-07-20T02:21:50;13.60;77.80
56538;DHT22;42435;53.292;6.000;2023-07-20T02:24:15;13.60;77.80
56538;DHT22;42435;53.292;6.000;2023-07-20T02:26:41;13.50;77.80
56538;DHT22;42435;53.292;6.000;2023-07-20T02:29:07;13.50;78.10
56538;DHT22;42435;53.292;6.000;2023-07-20T02:31:33;13.50;78.40
56538;DHT22;42435;53.292;6.000;2023-07-20T02:33:59;13.50;78.50
56538;DHT22;42435;53.292;6.000;2023-07-20T02:36:24;13.50;78.40
56538;DHT22;42435;53.292;6.000;2023-07-20T02:38:50;13.50;78.50
56538;DHT22;42435;53.292;6.000;2023-07-20T02:41:15;13.50;78.80
56538;DHT22;42435;53.292;6.000;2023-07-20T02:43:41;13.50;79.10
56538;DHT22;42435;53.292;6.000;2023-07-20T02:46:06;13.40;79.30
56538;DHT22;42435;53.292;6.000;2023-07-20T02:48:32;13.50;79.40
56538;DHT22;42435;53.292;6.000;2023-07-20T02:50:58;13.50;79.60
56538;DHT22;42435;53.292;6.000;2023-07-20T02:53:23;13.50;79.80
56538;DHT22;42435;53.292;6.000;2023-07-20T02:55:49;13.50;79.80
56538;DHT22;42435;53.292;6.000;2023-07-20T02:58:15;13.50;79.70
56538;DHT22;42435;53.292;6.000;2023-07-20T03:00:42;13.50;79.80
56538;DHT22;42435;53.292;6.000;2023-07-20T03:03:08;13.40;80.00
56538;DHT22;42435;53.292;6.000;2023-07-20T03:05:35;13.40;80.00
56538;DHT22;42435;53.292;6.000;2023-07-20T03:08:03;13.40;80.10
56538;DHT22;42435;53.292;6.000;2023-07-20T03:10:29;13.50;80.20
56538;DHT22;42435;53.292;6.000;2023-07-20T03:12:54;13.50;80.20
56538;DHT22;42435;53.292;6.000;2023-07-20T03:15:20;13.50;80.30
56538;DHT22;42435;53.292;6.000;2023-07-20T03:17:47;13.50;80.30
56538;DHT22;42435;53.292;6.000;2023-07-20T03:20:12;13.50;80.40
56538;DHT22;42435;53.292;6.000;2023-07-20T03:22:38;13.50;80.30
56538;DHT22;42435;53.292;6.000;2023-07-20T03:25:04;13.50;80.10
56538;DHT22;42435;53.292;6.000;2023-07-20T03:27:30;13.50;80.00
56538;DHT22;42435;53.292;6.000;2023-07-20T03:29:55;13.50;80.10
56538;DHT22;42435;53.292;6.000;2023-07-20T03:32:22;13.50;80.00
56538;DHT22;42435;53.292;6.000;2023-07-20T03:34:48;13.50;79.90
56538;DHT22;42435;53.292;6.000;2023-07-20T03:37:13;13.50;79.80
56538;DHT22;42435;53.292;6.000;2023-07-20T03:39:39;13.50;79.60
56538;DHT22;42435;53.292;6.000;2023-07-20T03:42:05;13.50;79.50
56538;DHT22;42435;53.292;6.000;2023-07-20T03:44:31;13.50;79.60
56538;DHT22;42435;53.292;6.000;2023-07-20T03:46:57;13.50;79.80
56538;DHT22;42435;53.292;6.000;2023-07-20T03:49:23;13.50;79.90
56538;DHT22;42435;53.292;6.000;2023-07-20T03:51:48;13.50;80.10
56538;DHT22;42435;53.292;6.000;2023-07-20T03:54:14;13.50;80.10
56538;DHT22;42435;53.292;6.000;2023-07-20T03:56:39;13.60;80.00
56538;DHT22;42435;53.292;6.000;2023-07-20T03:59:05;13.60;79.90
56538;DHT22;42435;53.292;6.000;2023-07-20T04:01:30;13.60;79.80
56538;DHT22;42435;53.292;6.000;2023-07-20T04:04:04;13.60;79.80
56538;DHT22;42435;53.292;6.000;2023-07-20T04:06:30;13.60;79.80
56538;DHT22;42435;53.292;6.000;2023-07-20T04:08:56;13.60;79.80
56538;DHT22;42435;53.292;6.000;2023-07-20T04:11:21;13.60;79.80
56538;DHT22;42435;53.292;6.000;2023-07-20T04:13:47;13.60;79.70
56538;DHT22;42435;53.292;6.000;2023-07-20T04:16:12;13.60;79.60
56538;DHT22;42435;53.292;6.000;2023-07-20T04:18:38;13.60;79.80
56538;DHT22;42435;53.292;6.000;2023-07-20T04:21:04;13.60;79.80
56538;DHT22;42435;53.292;6.000;2023-07-20T04:23:29;13.60;79.80
56538;DHT22;42435;53.292;6.000;2023-07-20T04:25:55;13.60;79.80
56538;DHT22;42435;53.292;6.000;2023-07-20T04:28:20;13.60;79.60
56538;DHT22;42435;53.292;6.000;2023-07-20T04:30:49;13.60;79.50
56538;DHT22;42435;53.292;6.000;2023-07-20T04:33:15;13.60;79.70
56538;DHT22;42435;53.292;6.000;2023-07-20T04:36:08;13.60;79.80
56538;DHT22;42435;53.292;6.000;2023-07-20T04:38:34;13.70;79.80
56538;DHT22;42435;53.292;6.000;2023-07-20T04:41:00;13.70;79.60
56538;DHT22;42435;53.292;6.000;2023-07-20T04:43:25;13.70;79.70
56538;DHT22;42435;53.292;6.000;2023-07-20T04:45:55;13.70;79.60
56538;DHT22;42435;53.292;6.000;2023-07-20T04:48:20;13.70;79.70
56538;DHT22;42435;53.292;6.000;2023-07-20T04:50:46;13.70;79.60
56538;DHT22;42435;53.292;6.000;2023-07-20T04:53:12;13.80;79.50
56538;DHT22;42435;53.292;6.000;2023-07-20T04:55:38;13.80;79.30
56538;DHT22;42435;53.292;6.000;2023-07-20T04:58:05;13.90;79.20
56538;DHT22;42435;53.292;6.000;2023-07-20T05:00:34;13.90;79.10
56538;DHT22;42435;53.292;6.000;2023-07-20T05:03:00;13.90;79.00
56538;DHT22;42435;53.292;6.000;2023-07-20T05:05:26;13.90;79.00
56538;DHT22;42435;53.292;6.000;2023-07-20T05:07:51;14.00;79.10
56538;DHT22;42435;53.292;6.000;2023-07-20T05:10:17;14.00;79.20
56538;DHT22;42435;53.292;6.000;2023-07-20T05:12:43;14.10;79.50
56538;DHT22;42435;53.292;6.000;2023-07-20T05:15:09;14.20;79.60
56538;DHT22;42435;53.292;6.000;2023-07-20T05:17:35;14.20;79.40
56538;DHT22;42435;53.292;6.000;2023-07-20T05:20:00;14.30;79.40
56538;DHT22;42435;53.292;6.000;2023-07-20T05:22:26;14.40;79.30
56538;DHT22;42435;53.292;6.000;2023-07-20T05:24:51;14.40;79.40
56538;DHT22;42435;53.292;6.000;2023-07-20T05:27:17;14.50;79.40
56538;DHT22;42435;53.292;6.000;2023-07-20T05:29:46;14.60;79.50
56538;DHT22;42435;53.292;6.000;2023-07-20T05:32:12;14.70;79.70
56538;DHT22;42435;53.292;6.000;2023-07-20T05:34:38;14.80;79.60
56538;DHT22;42435;53.292;6.000;2023-07-20T05:37:04;14.90;79.50
56538;DHT22;42435;53.292;6.000;2023-07-20T05:39:29;15.00;79.50
56538;DHT22;42435;53.292;6.000;2023-07-20T05:41:57;15.20;79.30
56538;DHT22;42435;53.292;6.000;2023-07-20T05:44:22;15.30;79.20
56538;DHT22;42435;53.292;6.000;2023-07-20T05:46:48;15.40;79.10
56538;DHT22;42435;53.292;6.000;2023-07-20T05:49:13;15.50;78.90
56538;DHT22;42435;53.292;6.000;2023-07-20T05:51:39;15.60;78.80
56538;DHT22;42435;53.292;6.000;2023-07-20T05:54:05;15.70;78.60
56538;DHT22;42435;53.292;6.000;2023-07-20T05:56:31;15.90;78.60
56538;DHT22;42435;53.292;6.000;2023-07-20T05:58:56;16.00;78.60
56538;DHT22;42435;53.292;6.000;2023-07-20T06:01:22;16.10;78.30
56538;DHT22;42435;53.292;6.000;2023-07-20T06:03:47;16.20;77.90
56538;DHT22;42435;53.292;6.000;2023-07-20T06:06:13;16.40;77.70
56538;DHT22;42435;53.292;6.000;2023-07-20T06:08:39;16.60;77.20
56538;DHT22;42435;53.292;6.000;2023-07-20T06:11:04;16.80;76.40
56538;DHT22;42435;53.292;6.000;2023-07-20T06:13:30;16.90;76.20
56538;DHT22;42435;53.292;6.000;2023-07-20T06:15:56;17.00;76.20
56538;DHT22;42435;53.292;6.000;2023-07-20T06:18:23;17.30;75.80
56538;DHT22;42435;53.292;6.000;2023-07-20T06:20:50;17.50;74.70
56538;DHT22;42435;53.292;6.000;2023-07-20T06:23:16;17.70;74.80
56538;DHT22;42435;53.292;6.000;2023-07-20T06:25:41;17.90;74.20
56538;DHT22;42435;53.292;6.000;2023-07-20T06:28:07;18.10;73.60
56538;DHT22;42435;53.292;6.000;2023-07-20T06:30:34;18.40;72.50
56538;DHT22;42435;53.292;6.000;2023-07-20T06:33:00;18.70;71.50
56538;DHT22;42435;53.292;6.000;2023-07-20T06:35:25;18.80;70.50
56538;DHT22;42435;53.292;6.000;2023-07-20T06:37:52;19.10;69.50
56538;DHT22;42435;53.292;6.000;2023-07-20T06:40:17;19.40;68.40
56538;DHT22;42435;53.292;6.000;2023-07-20T06:42:43;19.70;67.20
56538;DHT22;42435;53.292;6.000;2023-07-20T06:45:09;20.10;66.20
56538;DHT22;42435;53.292;6.000;2023-07-20T06:47:37;20.40;64.90
56538;DHT22;42435;53.292;6.000;2023-07-20T06:50:03;20.70;64.00
56538;DHT22;42435;53.292;6.000;2023-07-20T06:52:28;20.90;63.30
56538;DHT22;42435;53.292;6.000;2023-07-20T06:54:54;21.20;62.70
56538;DHT22;42435;53.292;6.000;2023-07-20T06:57:20;21.40;61.90
56538;DHT22;42435;53.292;6.000;2023-07-20T06:59:45;21.60;61.60
56538;DHT22;42435;53.292;6.000;2023-07-20T07:02:11;21.90;61.20
56538;DHT22;42435;53.292;6.000;2023-07-20T07:04:36;21.80;60.70
56538;DHT22;42435;53.292;6.000;2023-07-20T07:07:02;21.60;60.60
56538;DHT22;42435;53.292;6.000;2023-07-20T07:09:29;21.40;60.40
56538;DHT22;42435;53.292;6.000;2023-07-20T07:11:54;21.20;60.50
56538;DHT22;42435;53.292;6.000;2023-07-20T07:14:20;21.00;61.30
56538;DHT22;42435;53.292;6.000;2023-07-20T07:16:46;20.90;62.30
56538;DHT22;42435;53.292;6.000;2023-07-20T07:19:12;21.10;62.60
56538;DHT22;42435;53.292;6.000;2023-07-20T07:21:37;21.20;61.90
56538;DHT22;42435;53.292;6.000;2023-07-20T07:24:03;21.40;61.60
56538;DHT22;42435;53.292;6.000;2023-07-20T07:26:29;21.50;60.50
56538;DHT22;42435;53.292;6.000;2023-07-20T07:28:54;21.70;59.70
56538;DHT22;42435;53.292;6.000;2023-07-20T07:31:20;21.90;59.50
56538;DHT22;42435;53.292;6.000;2023-07-20T07:33:46;22.00;59.60
56538;DHT22;42435;53.292;6.000;2023-07-20T07:36:11;22.20;59.00
56538;DHT22;42435;53.292;6.000;2023-07-20T07:38:37;22.40;59.00
56538;DHT22;42435;53.292;6.000;2023-07-20T07:41:04;22.50;58.20
56538;DHT22;42435;53.292;6.000;2023-07-20T07:43:30;22.70;57.60
56538;DHT22;42435;53.292;6.000;2023-07-20T07:45:56;22.80;56.20
56538;DHT22;42435;53.292;6.000;2023-07-20T07:48:22;22.90;56.60
56538;DHT22;42435;53.292;6.000;2023-07-20T07:50:48;23.00;55.50
56538;DHT22;42435;53.292;6.000;2023-07-20T07:53:15;22.90;54.50
56538;DHT22;42435;53.292;6.000;2023-07-20T07:55:40;22.90;54.30
56538;DHT22;42435;53.292;6.000;2023-07-20T07:58:06;22.90;54.50
56538;DHT22;42435;53.292;6.000;2023-07-20T08:00:32;22.90;55.60
56538;DHT22;42435;53.292;6.000;2023-07-20T08:02:57;23.00;56.10
56538;DHT22;42435;53.292;6.000;2023-07-20T08:05:23;23.10;55.70
56538;DHT22;42435;53.292;6.000;2023-07-20T08:07:49;23.20;53.30
56538;DHT22;42435;53.292;6.000;2023-07-20T08:10:15;23.10;51.00
56538;DHT22;42435;53.292;6.000;2023-07-20T08:12:40;22.90;50.60
56538;DHT22;42435;53.292;6.000;2023-07-20T08:15:06;22.90;50.70
56538;DHT22;42435;53.292;6.000;2023-07-20T08:17:32;22.90;51.70
56538;DHT22;42435;53.292;6.000;2023-07-20T08:19:58;22.90;52.30
56538;DHT22;42435;53.292;6.000;2023-07-20T08:22:24;22.90;52.40
56538;DHT22;42435;53.292;6.000;2023-07-20T08:24:49;22.90;52.10
56538;DHT22;42435;53.292;6.000;2023-07-20T08:27:18;22.90;52.50
56538;DHT22;42435;53.292;6.000;2023-07-20T08:29:43;22.90;53.80
56538;DHT22;42435;53.292;6.000;2023-07-20T08:32:09;23.10;54.20
56538;DHT22;42435;53.292;6.000;2023-07-20T08:34:34;23.20;54.80
56538;DHT22;42435;53.292;6.000;2023-07-20T08:37:00;23.40;53.50
56538;DHT22;42435;53.292;6.000;2023-07-20T08:39:26;23.50;52.30
56538;DHT22;42435;53.292;6.000;2023-07-20T08:41:55;23.70;52.40
56538;DHT22;42435;53.292;6.000;2023-07-20T08:44:22;23.90;52.20
56538;DHT22;42435;53.292;6.000;2023-07-20T08:46:49;24.00;51.10
56538;DHT22;42435;53.292;6.000;2023-07-20T08:49:16;24.20;51.50
56538;DHT22;42435;53.292;6.000;2023-07-20T08:51:43;24.30;51.40
56538;DHT22;42435;53.292;6.000;2023-07-20T08:54:09;24.50;50.30
56538;DHT22;42435;53.292;6.000;2023-07-20T08:56:38;24.60;50.10
56538;DHT22;42435;53.292;6.000;2023-07-20T08:59:04;24.70;48.50
56538;DHT22;42435;53.292;6.000;2023-07-20T09:01:30;24.70;46.90
56538;DHT22;42435;53.292;6.000;2023-07-20T09:03:57;24.60;46.70
56538;DHT22;42435;53.292;6.000;2023-07-20T09:06:22;24.40;47.80
56538;DHT22;42435;53.292;6.000;2023-07-20T09:08:48;24.40;48.40
56538;DHT22;42435;53.292;6.000;2023-07-20T09:11:14;24.50;47.70
56538;DHT22;42435;53.292;6.000;2023-07-20T09:13:40;24.60;47.50
56538;DHT22;42435;53.292;6.000;2023-07-20T09:16:06;24.60;46.70
56538;DHT22;42435;53.292;6.000;2023-07-20T09:18:32;24.60;46.80
56538;DHT22;42435;53.292;6.000;2023-07-20T09:21:05;24.60;45.40
56538;DHT22;42435;53.292;6.000;2023-07-20T09:23:35;24.60;46.80
56538;DHT22;42435;53.292;6.000;2023-07-20T09:26:12;24.70;47.60
56538;DHT22;42435;53.292;6.000;2023-07-20T09:29:05;24.90;46.00
56538;DHT22;42435;53.292;6.000;2023-07-20T09:31:32;25.20;46.10
56538;DHT22;42435;53.292;6.000;2023-07-20T09:33:58;25.40;47.30
56538;DHT22;42435;53.292;6.000;2023-07-20T09:36:24;25.60;46.70
56538;DHT22;42435;53.292;6.000;2023-07-20T09:38:51;25.70;46.70
56538;DHT22;42435;53.292;6.000;2023-07-20T09:41:18;25.90;46.50
56538;DHT22;42435;53.292;6.000;2023-07-20T09:43:43;26.00;46.40
56538;DHT22;42435;53.292;6.000;2023-07-20T09:46:10;26.20;45.80
56538;DHT22;42435;53.292;6.000;2023-07-20T09:48:36;26.40;45.60
56538;DHT22;42435;53.292;6.000;2023-07-20T09:51:02;26.40;43.60
56538;DHT22;42435;53.292;6.000;2023-07-20T09:53:28;26.40;43.20
56538;DHT22;42435;53.292;6.000;2023-07-20T09:55:55;26.20;42.20
56538;DHT22;42435;53.292;6.000;2023-07-20T09:58:22;26.00;42.90
56538;DHT22;42435;53.292;6.000;2023-07-20T10:00:50;26.20;43.00
56538;DHT22;42435;53.292;6.000;2023-07-20T10:03:19;26.20;42.50
56538;DHT22;42435;53.292;6.000;2023-07-20T10:06:13;26.00;42.70
56538;DHT22;42435;53.292;6.000;2023-07-20T10:08:41;25.90;43.00
56538;DHT22;42435;53.292;6.000;2023-07-20T10:11:08;25.90;43.10
56538;DHT22;42435;53.292;6.000;2023-07-20T10:13:38;26.00;43.20
56538;DHT22;42435;53.292;6.000;2023-07-20T10:16:10;26.20;44.30
56538;DHT22;42435;53.292;6.000;2023-07-20T10:19:02;26.30;44.50
56538;DHT22;42435;53.292;6.000;2023-07-20T10:21:29;26.40;42.90
56538;DHT22;42435;53.292;6.000;2023-07-20T10:23:59;26.40;43.00
56538;DHT22;42435;53.292;6.000;2023-07-20T10:26:26;26.20;43.80
56538;DHT22;42435;53.292;6.000;2023-07-20T10:28:52;26.10;43.90
56538;DHT22;42435;53.292;6.000;2023-07-20T10:31:18;25.90;43.70
56538;DHT22;42435;53.292;6.000;2023-07-20T10:33:45;25.80;45.10
56538;DHT22;42435;53.292;6.000;2023-07-20T10:36:11;25.90;43.90
56538;DHT22;42435;53.292;6.000;2023-07-20T10:41:17;26.00;45.10
56538;DHT22;42435;53.292;6.000;2023-07-20T10:44:05;26.20;44.90
56538;DHT22;42435;53.292;6.000;2023-07-20T10:49:04;26.30;42.90
56538;DHT22;42435;53.292;6.000;2023-07-20T10:56:47;26.20;44.10
56538;DHT22;42435;53.292;6.000;2023-07-20T11:01:49;26.50;43.10
56538;DHT22;42435;53.292;6.000;2023-07-20T11:04:16;26.70;42.30
56538;DHT22;42435;53.292;6.000;2023-07-20T11:06:45;26.80;43.30
56538;DHT22;42435;53.292;6.000;2023-07-20T11:09:14;26.90;41.80
56538;DHT22;42435;53.292;6.000;2023-07-20T11:11:47;27.00;42.30
56538;DHT22;42435;53.292;6.000;2023-07-20T11:14:24;27.10;41.10
56538;DHT22;42435;53.292;6.000;2023-07-20T11:16:51;27.20;42.00
56538;DHT22;42435;53.292;6.000;2023-07-20T11:22:00;27.50;42.30
56538;DHT22;42435;53.292;6.000;2023-07-20T11:24:30;27.80;41.10
56538;DHT22;42435;53.292;6.000;2023-07-20T11:26:56;28.00;40.90
56538;DHT22;42435;53.292;6.000;2023-07-20T11:29:22;28.00;40.90
56538;DHT22;42435;53.292;6.000;2023-07-20T11:31:49;28.00;39.80
56538;DHT22;42435;53.292;6.000;2023-07-20T11:34:18;27.90;39.90
56538;DHT22;42435;53.292;6.000;2023-07-20T11:36:49;27.60;40.00
56538;DHT22;42435;53.292;6.000;2023-07-20T11:39:17;27.40;40.70
56538;DHT22;42435;53.292;6.000;2023-07-20T11:41:51;27.20;40.50
56538;DHT22;42435;53.292;6.000;2023-07-20T11:44:17;27.00;41.00
56538;DHT22;42435;53.292;6.000;2023-07-20T11:46:46;26.80;41.30
56538;DHT22;42435;53.292;6.000;2023-07-20T11:49:12;26.70;41.70
56538;DHT22;42435;53.292;6.000;2023-07-20T11:51:39;26.60;42.30
56538;DHT22;42435;53.292;6.000;2023-07-20T11:54:08;26.60;41.90
56538;DHT22;42435;53.292;6.000;2023-07-20T11:56:34;26.50;42.40
56538;DHT22;42435;53.292;6.000;2023-07-20T11:59:01;26.50;42.00
56538;DHT22;42435;53.292;6.000;2023-07-20T12:01:29;26.40;42.10
56538;DHT22;42435;53.292;6.000;2023-07-20T12:04:03;26.40;42.00
56538;DHT22;42435;53.292;6.000;2023-07-20T12:06:29;26.40;42.90
56538;DHT22;42435;53.292;6.000;2023-07-20T12:08:57;26.50;43.40
56538;DHT22;42435;53.292;6.000;2023-07-20T12:11:36;26.70;42.50
56538;DHT22;42435;53.292;6.000;2023-07-20T12:14:03;26.80;42.20
56538;DHT22;42435;53.292;6.000;2023-07-20T12:16:30;26.80;41.00
56538;DHT22;42435;53.292;6.000;2023-07-20T12:19:11;26.90;41.70
56538;DHT22;42435;53.292;6.000;2023-07-20T12:21:39;26.80;41.60
56538;DHT22;42435;53.292;6.000;2023-07-20T12:24:08;26.80;41.70
56538;DHT22;42435;53.292;6.000;2023-07-20T12:26:35;26.70;42.50
56538;DHT22;42435;53.292;6.000;2023-07-20T12:29:01;26.80;42.70
56538;DHT22;42435;53.292;6.000;2023-07-20T12:31:27;26.90;41.90
56538;DHT22;42435;53.292;6.000;2023-07-20T12:33:56;26.80;41.50
56538;DHT22;42435;53.292;6.000;2023-07-20T12:36:22;26.70;42.50
56538;DHT22;42435;53.292;6.000;2023-07-20T12:38:48;26.70;43.00
56538;DHT22;42435;53.292;6.000;2023-07-20T12:41:14;26.90;42.90
56538;DHT22;42435;53.292;6.000;2023-07-20T12:43:43;27.00;42.50
56538;DHT22;42435;53.292;6.000;2023-07-20T12:46:10;27.10;42.60
56538;DHT22;42435;53.292;6.000;2023-07-20T12:48:37;27.10;42.70
56538;DHT22;42435;53.292;6.000;2023-07-20T12:51:04;27.20;42.80
56538;DHT22;42435;53.292;6.000;2023-07-20T12:53:31;27.30;42.20
56538;DHT22;42435;53.292;6.000;2023-07-20T12:56:00;27.40;42.30
56538;DHT22;42435;53.292;6.000;2023-07-20T12:58:26;27.60;42.20
56538;DHT22;42435;53.292;6.000;2023-07-20T13:00:55;27.60;41.80
56538;DHT22;42435;53.292;6.000;2023-07-20T13:03:22;27.60;42.10
56538;DHT22;42435;53.292;6.000;2023-07-20T13:05:47;27.60;41.70
56538;DHT22;42435;53.292;6.000;2023-07-20T13:08:13;27.50;42.50
56538;DHT22;42435;53.292;6.000;2023-07-20T13:10:39;27.50;42.80
56538;DHT22;42435;53.292;6.000;2023-07-20T13:13:05;27.60;42.60
56538;DHT22;42435;53.292;6.000;2023-07-20T13:15:32;27.60;42.50
56538;DHT22;42435;53.292;6.000;2023-07-20T13:17:58;27.60;41.50
56538;DHT22;42435;53.292;6.000;2023-07-20T13:20:25;27.60;41.60
56538;DHT22;42435;53.292;6.000;2023-07-20T13:22:51;27.50;41.10
56538;DHT22;42435;53.292;6.000;2023-07-20T13:25:17;27.50;41.00
56538;DHT22;42435;53.292;6.000;2023-07-20T13:27:42;27.40;41.70
56538;DHT22;42435;53.292;6.000;2023-07-20T13:30:12;27.40;42.00
56538;DHT22;42435;53.292;6.000;2023-07-20T13:32:45;27.60;41.10
56538;DHT22;42435;53.292;6.000;2023-07-20T13:35:12;27.70;39.80
56538;DHT22;42435;53.292;6.000;2023-07-20T13:37:38;27.60;39.80
56538;DHT22;42435;53.292;6.000;2023-07-20T13:40:04;27.60;39.70
56538;DHT22;42435;53.292;6.000;2023-07-20T13:42:33;27.60;39.30
56538;DHT22;42435;53.292;6.000;2023-07-20T13:44:59;27.60;38.80
56538;DHT22;42435;53.292;6.000;2023-07-20T13:47:26;27.60;40.00
56538;DHT22;42435;53.292;6.000;2023-07-20T13:49:52;27.60;39.50
56538;DHT22;42435;53.292;6.000;2023-07-20T13:52:17;27.60;39.20
56538;DHT22;42435;53.292;6.000;2023-07-20T13:54:43;27.50;39.30
56538;DHT22;42435;53.292;6.000;2023-07-20T13:57:09;27.40;39.80
56538;DHT22;42435;53.292;6.000;2023-07-20T13:59:34;27.40;39.70
56538;DHT22;42435;53.292;6.000;2023-07-20T14:02:00;27.40;38.80
56538;DHT22;42435;53.292;6.000;2023-07-20T14:04:28;27.30;38.80
56538;DHT22;42435;53.292;6.000;2023-07-20T14:06:54;27.20;39.20
56538;DHT22;42435;53.292;6.000;2023-07-20T14:09:19;27.10;39.00
56538;DHT22;42435;53.292;6.000;2023-07-20T14:11:45;27.10;38.60
56538;DHT22;42435;53.292;6.000;2023-07-20T14:14:11;27.00;38.60
56538;DHT22;42435;53.292;6.000;2023-07-20T14:16:36;27.00;39.30
56538;DHT22;42435;53.292;6.000;2023-07-20T14:19:02;26.90;39.10
56538;DHT22;42435;53.292;6.000;2023-07-20T14:21:30;26.70;39.00
56538;DHT22;42435;53.292;6.000;2023-07-20T14:23:56;26.50;40.00
56538;DHT22;42435;53.292;6.000;2023-07-20T14:26:23;26.60;40.70
56538;DHT22;42435;53.292;6.000;2023-07-20T14:28:49;26.70;40.40
56538;DHT22;42435;53.292;6.000;2023-07-20T14:31:14;26.80;39.90
56538;DHT22;42435;53.292;6.000;2023-07-20T14:33:41;26.90;39.30
56538;DHT22;42435;53.292;6.000;2023-07-20T14:36:07;26.90;39.00
56538;DHT22;42435;53.292;6.000;2023-07-20T14:38:34;26.60;39.80
56538;DHT22;42435;53.292;6.000;2023-07-20T14:41:00;26.40;40.40
56538;DHT22;42435;53.292;6.000;2023-07-20T14:43:26;26.30;40.70
56538;DHT22;42435;53.292;6.000;2023-07-20T14:45:51;26.20;41.10
56538;DHT22;42435;53.292;6.000;2023-07-20T14:48:17;26.20;41.40
56538;DHT22;42435;53.292;6.000;2023-07-20T14:50:43;26.20;41.90
56538;DHT22;42435;53.292;6.000;2023-07-20T14:53:12;26.20;41.30
56538;DHT22;42435;53.292;6.000;2023-07-20T14:55:38;26.10;40.30
56538;DHT22;42435;53.292;6.000;2023-07-20T14:58:04;26.00;40.90
56538;DHT22;42435;53.292;6.000;2023-07-20T15:00:29;25.90;40.70
56538;DHT22;42435;53.292;6.000;2023-07-20T15:02:55;25.90;40.70
56538;DHT22;42435;53.292;6.000;2023-07-20T15:05:22;25.80;40.40
56538;DHT22;42435;53.292;6.000;2023-07-20T15:07:51;25.90;41.60
56538;DHT22;42435;53.292;6.000;2023-07-20T15:10:17;25.90;41.90
56538;DHT22;42435;53.292;6.000;2023-07-20T15:12:42;25.90;42.20
56538;DHT22;42435;53.292;6.000;2023-07-20T15:15:13;26.00;41.70
56538;DHT22;42435;53.292;6.000;2023-07-20T15:17:40;26.00;40.90
56538;DHT22;42435;53.292;6.000;2023-07-20T15:20:08;25.80;41.60
56538;DHT22;42435;53.292;6.000;2023-07-20T15:22:36;25.80;42.30
56538;DHT22;42435;53.292;6.000;2023-07-20T15:25:02;25.90;42.20
56538;DHT22;42435;53.292;6.000;2023-07-20T15:27:29;26.00;41.80
56538;DHT22;42435;53.292;6.000;2023-07-20T15:29:55;26.00;41.90
56538;DHT22;42435;53.292;6.000;2023-07-20T15:32:20;26.00;41.00
56538;DHT22;42435;53.292;6.000;2023-07-20T15:34:46;26.00;41.50
56538;DHT22;42435;53.292;6.000;2023-07-20T15:37:12;26.00;41.40
56538;DHT22;42435;53.292;6.000;2023-07-20T15:39:38;25.90;42.00
56538;DHT22;42435;53.292;6.000;2023-07-20T15:42:04;25.80;42.20
56538;DHT22;42435;53.292;6.000;2023-07-20T15:44:30;25.80;41.90
56538;DHT22;42435;53.292;6.000;2023-07-20T15:46:56;25.70;41.50
56538;DHT22;42435;53.292;6.000;2023-07-20T15:49:22;25.70;42.40
56538;DHT22;42435;53.292;6.000;2023-07-20T15:51:49;25.80;42.90
56538;DHT22;42435;53.292;6.000;2023-07-20T15:54:15;25.90;42.80